sensor_id;sensor_type;location;lat;lon;timestamp;P1;durP1;ratioP1;P2;durP2;ratioP2
37847;SDS011;23688;33.130;-117.188;2024-03-06T00:02:12;5.45;;;1.35;;
37847;SDS011;23688;33.130;-117.188;2024-03-06T00:04:39;8.75;;;1.50;;
37847;SDS011;23688;33.130;-117.188;2024-03-06T00:07:05;6.20;;;1.58;;
37847;SDS011;23688;33.130;-117.188;2024-03-06T00:09:31;8.75;;;1.38;;
37847;SDS011;23688;33.130;-117.188;2024-03-06T00:11:57;7.82;;;2.10;;
37847;SDS011;23688;33.130;-117.188;2024-03-06T00:14:25;12.10;;;1.92;;
37847;SDS011;23688;33.130;-117.188;2024-03-06T00:16:51;5.47;;;1.52;;
37847;SDS011;23688;33.130;-117.188;2024-03-06T00:19:18;18.35;;;1.63;;
37847;SDS011;23688;33.130;-117.188;2024-03-06T00:21:44;11.73;;;1.50;;
37847;SDS011;23688;33.130;-117.188;2024-03-06T00:24:11;14.68;;;2.28;;
37847;SDS011;23688;33.130;-117.188;2024-03-06T00:26:44;5.10;;;1.15;;
37847;SDS011;23688;33.130;-117.188;2024-03-06T00:29:12;5.53;;;1.10;;
37847;SDS011;23688;33.130;-117.188;2024-03-06T00:31:43;7.72;;;1.27;;
37847;SDS011;23688;33.130;-117.188;2024-03-06T00:34:13;5.90;;;1.70;;
37847;SDS011;23688;33.130;-117.188;2024-03-06T00:36:39;13.40;;;2.00;;
37847;SDS011;23688;33.130;-117.188;2024-03-06T00:39:06;8.68;;;1.85;;
37847;SDS011;23688;33.130;-117.188;2024-03-06T00:41:33;19.52;;;2.08;;
37847;SDS011;23688;33.130;-117.188;2024-03-06T00:44:00;8.65;;;1.40;;
37847;SDS011;23688;33.130;-117.188;2024-03-06T00:46:29;8.88;;;1.70;;
37847;SDS011;23688;33.130;-117.188;2024-03-06T00:48:55;10.77;;;2.15;;
37847;SDS011;23688;33.130;-117.188;2024-03-06T00:51:21;12.65;;;1.52;;
37847;SDS011;23688;33.130;-117.188;2024-03-06T00:53:48;12.60;;;1.50;;
37847;SDS011;23688;33.130;-117.188;2024-03-06T00:56:15;10.60;;;1.33;;
37847;SDS011;23688;33.130;-117.188;2024-03-06T00:58:41;9.98;;;1.55;;
37847;SDS011;23688;33.130;-117.188;2024-03-06T01:01:07;5.63;;;1.35;;
37847;SDS011;23688;33.130;-117.188;2024-03-06T01:03:33;7.75;;;1.40;;
37847;SDS011;23688;33.130;-117.188;2024-03-06T01:06:00;17.58;;;2.25;;
37847;SDS011;23688;33.130;-117.188;2024-03-06T01:08:28;12.73;;;2.38;;
37847;SDS011;23688;33.130;-117.188;2024-03-06T01:10:55;10.20;;;2.10;;
37847;SDS011;23688;33.130;-117.188;2024-03-06T01:13:22;11.40;;;1.63;;
37847;SDS011;23688;33.130;-117.188;2024-03-06T01:15:49;11.18;;;2.35;;
37847;SDS011;23688;33.130;-117.188;2024-03-06T01:18:16;11.02;;;1.83;;
37847;SDS011;23688;33.130;-117.188;2024-03-06T01:20:42;5.28;;;1.10;;
37847;SDS011;23688;33.130;-117.188;2024-03-06T01:23:08;9.02;;;2.08;;
37847;SDS011;23688;33.130;-117.188;2024-03-06T01:25:34;12.95;;;2.17;;
37847;SDS011;23688;33.130;-117.188;2024-03-06T01:28:01;10.20;;;1.70;;
37847;SDS011;23688;33.130;-117.188;2024-03-06T01:30:28;11.30;;;1.90;;
37847;SDS011;23688;33.130;-117.188;2024-03-06T01:32:54;11.30;;;2.30;;
37847;SDS011;23688;33.130;-117.188;2024-03-06T01:35:20;9.95;;;2.50;;
37847;SDS011;23688;33.130;-117.188;2024-03-06T01:37:48;8.93;;;1.30;;
37847;SDS011;23688;33.130;-117.188;2024-03-06T01:40:14;7.43;;;1.60;;
37847;SDS011;23688;33.130;-117.188;2024-03-06T01:42:41;7.85;;;2.15;;
37847;SDS011;23688;33.130;-117.188;2024-03-06T01:45:07;13.50;;;2.50;;
37847;SDS011;23688;33.130;-117.188;2024-03-06T01:47:34;7.88;;;2.17;;
37847;SDS011;23688;33.130;-117.188;2024-03-06T01:50:01;8.15;;;1.80;;
37847;SDS011;23688;33.130;-117.188;2024-03-06T01:52:27;8.65;;;2.53;;
37847;SDS011;23688;33.130;-117.188;2024-03-06T01:54:54;7.93;;;2.20;;
37847;SDS011;23688;33.130;-117.188;2024-03-06T01:57:22;8.52;;;1.58;;
37847;SDS011;23688;33.130;-117.188;2024-03-06T01:59:48;14.30;;;2.40;;
37847;SDS011;23688;33.130;-117.188;2024-03-06T02:02:14;7.88;;;2.38;;
37847;SDS011;23688;33.130;-117.188;2024-03-06T02:04:41;6.80;;;1.50;;
37847;SDS011;23688;33.130;-117.188;2024-03-06T02:07:10;8.80;;;1.80;;
37847;SDS011;23688;33.130;-117.188;2024-03-06T02:09:41;6.80;;;1.98;;
37847;SDS011;23688;33.130;-117.188;2024-03-06T02:12:08;6.68;;;1.67;;
37847;SDS011;23688;33.130;-117.188;2024-03-06T02:14:35;17.42;;;2.28;;
37847;SDS011;23688;33.130;-117.188;2024-03-06T02:17:02;12.75;;;1.83;;
37847;SDS011;23688;33.130;-117.188;2024-03-06T02:19:41;14.27;;;2.08;;
37847;SDS011;23688;33.130;-117.188;2024-03-06T02:22:09;8.27;;;1.70;;
37847;SDS011;23688;33.130;-117.188;2024-03-06T02:24:37;10.52;;;2.28;;
37847;SDS011;23688;33.130;-117.188;2024-03-06T02:27:04;12.15;;;2.42;;
37847;SDS011;23688;33.130;-117.188;2024-03-06T02:29:31;7.40;;;1.90;;
37847;SDS011;23688;33.130;-117.188;2024-03-06T02:32:01;5.22;;;1.83;;
37847;SDS011;23688;33.130;-117.188;2024-03-06T02:34:30;6.47;;;1.42;;
37847;SDS011;23688;33.130;-117.188;2024-03-06T02:36:56;12.45;;;3.10;;
37847;SDS011;23688;33.130;-117.188;2024-03-06T02:39:22;8.32;;;1.77;;
37847;SDS011;23688;33.130;-117.188;2024-03-06T02:41:49;9.43;;;1.70;;
37847;SDS011;23688;33.130;-117.188;2024-03-06T02:44:15;10.18;;;1.60;;
37847;SDS011;23688;33.130;-117.188;2024-03-06T02:46:46;10.70;;;3.65;;
37847;SDS011;23688;33.130;-117.188;2024-03-06T02:49:16;10.18;;;1.92;;
37847;SDS011;23688;33.130;-117.188;2024-03-06T02:51:44;5.43;;;1.75;;
37847;SDS011;23688;33.130;-117.188;2024-03-06T02:54:10;12.93;;;2.22;;
37847;SDS011;23688;33.130;-117.188;2024-03-06T02:56:37;9.93;;;2.53;;
37847;SDS011;23688;33.130;-117.188;2024-03-06T02:59:06;9.55;;;1.83;;
37847;SDS011;23688;33.130;-117.188;2024-03-06T03:01:32;13.75;;;2.13;;
37847;SDS011;23688;33.130;-117.188;2024-03-06T03:03:59;10.48;;;2.20;;
37847;SDS011;23688;33.130;-117.188;2024-03-06T03:06:25;5.40;;;1.42;;
37847;SDS011;23688;33.130;-117.188;2024-03-06T03:08:52;8.30;;;1.88;;
37847;SDS011;23688;33.130;-117.188;2024-03-06T03:11:18;8.80;;;1.60;;
37847;SDS011;23688;33.130;-117.188;2024-03-06T03:13:44;15.05;;;2.22;;
37847;SDS011;23688;33.130;-117.188;2024-03-06T03:16:17;6.97;;;1.95;;
37847;SDS011;23688;33.130;-117.188;2024-03-06T03:18:45;5.95;;;2.15;;
37847;SDS011;23688;33.130;-117.188;2024-03-06T03:21:13;9.75;;;1.88;;
37847;SDS011;23688;33.130;-117.188;2024-03-06T03:23:41;10.07;;;3.25;;
37847;SDS011;23688;33.130;-117.188;2024-03-06T03:26:10;9.20;;;3.33;;
37847;SDS011;23688;33.130;-117.188;2024-03-06T03:28:39;17.02;;;4.63;;
37847;SDS011;23688;33.130;-117.188;2024-03-06T03:31:07;6.35;;;2.75;;
37847;SDS011;23688;33.130;-117.188;2024-03-06T03:33:40;7.68;;;2.15;;
37847;SDS011;23688;33.130;-117.188;2024-03-06T03:36:08;10.80;;;2.47;;
37847;SDS011;23688;33.130;-117.188;2024-03-06T03:38:38;11.32;;;1.83;;
37847;SDS011;23688;33.130;-117.188;2024-03-06T03:41:08;11.13;;;2.15;;
37847;SDS011;23688;33.130;-117.188;2024-03-06T03:43:39;6.75;;;1.98;;
37847;SDS011;23688;33.130;-117.188;2024-03-06T03:46:06;9.82;;;2.13;;
37847;SDS011;23688;33.130;-117.188;2024-03-06T03:48:32;6.75;;;2.00;;
37847;SDS011;23688;33.130;-117.188;2024-03-06T03:51:02;12.27;;;2.33;;
37847;SDS011;23688;33.130;-117.188;2024-03-06T03:53:32;11.45;;;1.55;;
37847;SDS011;23688;33.130;-117.188;2024-03-06T03:55:59;7.80;;;1.55;;
37847;SDS011;23688;33.130;-117.188;2024-03-06T03:58:26;15.35;;;1.90;;
37847;SDS011;23688;33.130;-117.188;2024-03-06T04:00:52;7.60;;;1.75;;
37847;SDS011;23688;33.130;-117.188;2024-03-06T04:03:20;9.37;;;2.13;;
37847;SDS011;23688;33.130;-117.188;2024-03-06T04:05:48;10.05;;;1.90;;
37847;SDS011;23688;33.130;-117.188;2024-03-06T04:08:14;9.05;;;1.90;;
37847;SDS011;23688;33.130;-117.188;2024-03-06T04:10:44;12.00;;;1.92;;
37847;SDS011;23688;33.130;-117.188;2024-03-06T04:13:10;7.35;;;2.20;;
37847;SDS011;23688;33.130;-117.188;2024-03-06T04:15:38;6.63;;;1.35;;
37847;SDS011;23688;33.130;-117.188;2024-03-06T04:18:04;5.80;;;1.98;;
37847;SDS011;23688;33.130;-117.188;2024-03-06T04:20:31;5.88;;;1.67;;
37847;SDS011;23688;33.130;-117.188;2024-03-06T04:22:57;4.90;;;1.70;;
37847;SDS011;23688;33.130;-117.188;2024-03-06T04:25:23;4.13;;;1.80;;
37847;SDS011;23688;33.130;-117.188;2024-03-06T04:27:50;12.45;;;1.80;;
37847;SDS011;23688;33.130;-117.188;2024-03-06T04:30:16;11.07;;;1.90;;
37847;SDS011;23688;33.130;-117.188;2024-03-06T04:32:42;7.40;;;2.17;;
37847;SDS011;23688;33.130;-117.188;2024-03-06T04:35:11;18.27;;;2.63;;
37847;SDS011;23688;33.130;-117.188;2024-03-06T04:37:37;8.85;;;1.70;;
37847;SDS011;23688;33.130;-117.188;2024-03-06T04:40:07;10.43;;;1.80;;
37847;SDS011;23688;33.130;-117.188;2024-03-06T04:42:35;9.53;;;1.90;;
37847;SDS011;23688;33.130;-117.188;2024-03-06T04:45:03;16.45;;;2.17;;
37847;SDS011;23688;33.130;-117.188;2024-03-06T04:47:34;10.50;;;1.67;;
37847;SDS011;23688;33.130;-117.188;2024-03-06T04:50:00;9.07;;;2.28;;
37847;SDS011;23688;33.130;-117.188;2024-03-06T04:52:26;7.65;;;1.60;;
37847;SDS011;23688;33.130;-117.188;2024-03-06T04:54:53;7.78;;;1.52;;
37847;SDS011;23688;33.130;-117.188;2024-03-06T04:57:19;12.40;;;2.78;;
37847;SDS011;23688;33.130;-117.188;2024-03-06T04:59:45;20.20;;;3.00;;
37847;SDS011;23688;33.130;-117.188;2024-03-06T05:02:12;8.75;;;1.77;;
37847;SDS011;23688;33.130;-117.188;2024-03-06T05:04:38;13.27;;;1.60;;
37847;SDS011;23688;33.130;-117.188;2024-03-06T05:07:04;13.80;;;2.17;;
37847;SDS011;23688;33.130;-117.188;2024-03-06T05:09:31;12.32;;;2.20;;
37847;SDS011;23688;33.130;-117.188;2024-03-06T05:11:57;9.23;;;1.88;;
37847;SDS011;23688;33.130;-117.188;2024-03-06T05:14:24;13.80;;;2.05;;
37847;SDS011;23688;33.130;-117.188;2024-03-06T05:16:50;7.45;;;1.88;;
37847;SDS011;23688;33.130;-117.188;2024-03-06T05:19:16;13.23;;;2.50;;
37847;SDS011;23688;33.130;-117.188;2024-03-06T05:21:42;11.38;;;2.30;;
37847;SDS011;23688;33.130;-117.188;2024-03-06T05:24:09;7.53;;;1.58;;
37847;SDS011;23688;33.130;-117.188;2024-03-06T05:26:35;8.02;;;1.95;;
37847;SDS011;23688;33.130;-117.188;2024-03-06T05:29:04;6.30;;;1.38;;
37847;SDS011;23688;33.130;-117.188;2024-03-06T05:31:30;7.25;;;1.83;;
37847;SDS011;23688;33.130;-117.188;2024-03-06T05:33:57;3.60;;;1.77;;
37847;SDS011;23688;33.130;-117.188;2024-03-06T05:36:26;11.13;;;2.47;;
37847;SDS011;23688;33.130;-117.188;2024-03-06T05:38:52;8.10;;;1.80;;
37847;SDS011;23688;33.130;-117.188;2024-03-06T05:41:19;7.03;;;1.42;;
37847;SDS011;23688;33.130;-117.188;2024-03-06T05:43:47;16.33;;;3.03;;
37847;SDS011;23688;33.130;-117.188;2024-03-06T05:46:14;7.22;;;1.65;;
37847;SDS011;23688;33.130;-117.188;2024-03-06T05:48:41;8.27;;;1.50;;
37847;SDS011;23688;33.130;-117.188;2024-03-06T05:51:08;6.88;;;1.45;;
37847;SDS011;23688;33.130;-117.188;2024-03-06T05:53:38;8.65;;;2.40;;
37847;SDS011;23688;33.130;-117.188;2024-03-06T05:56:06;8.40;;;1.63;;
37847;SDS011;23688;33.130;-117.188;2024-03-06T05:58:32;9.25;;;2.15;;
37847;SDS011;23688;33.130;-117.188;2024-03-06T06:01:02;15.02;;;2.50;;
37847;SDS011;23688;33.130;-117.188;2024-03-06T06:03:31;13.40;;;2.00;;
37847;SDS011;23688;33.130;-117.188;2024-03-06T06:05:57;7.40;;;2.08;;
37847;SDS011;23688;33.130;-117.188;2024-03-06T06:08:24;8.13;;;1.50;;
37847;SDS011;23688;33.130;-117.188;2024-03-06T06:10:50;7.57;;;1.85;;
37847;SDS011;23688;33.130;-117.188;2024-03-06T06:13:17;5.90;;;1.83;;
37847;SDS011;23688;33.130;-117.188;2024-03-06T06:15:47;7.82;;;1.80;;
37847;SDS011;23688;33.130;-117.188;2024-03-06T06:18:14;5.93;;;2.22;;
37847;SDS011;23688;33.130;-117.188;2024-03-06T06:20:41;3.90;;;1.50;;
37847;SDS011;23688;33.130;-117.188;2024-03-06T06:23:08;9.70;;;1.83;;
37847;SDS011;23688;33.130;-117.188;2024-03-06T06:25:34;10.02;;;2.38;;
37847;SDS011;23688;33.130;-117.188;2024-03-06T06:28:01;7.78;;;2.03;;
37847;SDS011;23688;33.130;-117.188;2024-03-06T06:30:27;10.68;;;2.00;;
37847;SDS011;23688;33.130;-117.188;2024-03-06T06:32:53;8.98;;;1.75;;
37847;SDS011;23688;33.130;-117.188;2024-03-06T06:35:19;5.45;;;1.80;;
37847;SDS011;23688;33.130;-117.188;2024-03-06T06:37:47;9.07;;;2.03;;
37847;SDS011;23688;33.130;-117.188;2024-03-06T06:40:14;11.25;;;2.25;;
37847;SDS011;23688;33.130;-117.188;2024-03-06T06:42:44;12.05;;;2.03;;
37847;SDS011;23688;33.130;-117.188;2024-03-06T06:45:18;7.95;;;1.90;;
37847;SDS011;23688;33.130;-117.188;2024-03-06T06:47:45;6.22;;;1.80;;
37847;SDS011;23688;33.130;-117.188;2024-03-06T06:50:12;8.02;;;1.88;;
37847;SDS011;23688;33.130;-117.188;2024-03-06T06:52:38;8.88;;;2.58;;
37847;SDS011;23688;33.130;-117.188;2024-03-06T06:55:05;6.63;;;1.52;;
37847;SDS011;23688;33.130;-117.188;2024-03-06T06:57:34;12.00;;;2.45;;
37847;SDS011;23688;33.130;-117.188;2024-03-06T07:00:02;4.68;;;1.52;;
37847;SDS011;23688;33.130;-117.188;2024-03-06T07:02:42;8.45;;;2.05;;
37847;SDS011;23688;33.130;-117.188;2024-03-06T07:05:09;9.30;;;1.77;;
37847;SDS011;23688;33.130;-117.188;2024-03-06T07:07:36;14.87;;;4.47;;
37847;SDS011;23688;33.130;-117.188;2024-03-06T07:10:06;9.15;;;2.83;;
37847;SDS011;23688;33.130;-117.188;2024-03-06T07:12:33;6.63;;;2.33;;
37847;SDS011;23688;33.130;-117.188;2024-03-06T07:15:01;11.07;;;2.80;;
37847;SDS011;23688;33.130;-117.188;2024-03-06T07:17:28;7.22;;;2.20;;
37847;SDS011;23688;33.130;-117.188;2024-03-06T07:19:54;9.00;;;2.30;;
37847;SDS011;23688;33.130;-117.188;2024-03-06T07:22:21;10.52;;;1.70;;
37847;SDS011;23688;33.130;-117.188;2024-03-06T07:24:48;8.70;;;1.98;;
37847;SDS011;23688;33.130;-117.188;2024-03-06T07:27:14;8.70;;;2.10;;
37847;SDS011;23688;33.130;-117.188;2024-03-06T07:29:40;9.98;;;2.25;;
37847;SDS011;23688;33.130;-117.188;2024-03-06T07:32:07;9.68;;;1.83;;
37847;SDS011;23688;33.130;-117.188;2024-03-06T07:34:33;6.95;;;2.47;;
37847;SDS011;23688;33.130;-117.188;2024-03-06T07:37:00;9.35;;;2.88;;
37847;SDS011;23688;33.130;-117.188;2024-03-06T07:39:27;9.77;;;2.83;;
37847;SDS011;23688;33.130;-117.188;2024-03-06T07:41:54;14.63;;;4.03;;
37847;SDS011;23688;33.130;-117.188;2024-03-06T07:44:20;10.05;;;4.22;;
37847;SDS011;23688;33.130;-117.188;2024-03-06T07:46:46;17.55;;;3.42;;
37847;SDS011;23688;33.130;-117.188;2024-03-06T07:49:13;10.27;;;3.65;;
37847;SDS011;23688;33.130;-117.188;2024-03-06T07:51:40;11.88;;;3.20;;
37847;SDS011;23688;33.130;-117.188;2024-03-06T07:54:06;9.40;;;2.95;;
37847;SDS011;23688;33.130;-117.188;2024-03-06T07:56:33;7.47;;;3.15;;
37847;SDS011;23688;33.130;-117.188;2024-03-06T07:59:00;4.63;;;2.65;;
37847;SDS011;23688;33.130;-117.188;2024-03-06T08:01:27;16.33;;;3.95;;
37847;SDS011;23688;33.130;-117.188;2024-03-06T08:03:57;7.53;;;2.67;;
37847;SDS011;23688;33.130;-117.188;2024-03-06T08:06:23;9.18;;;2.53;;
37847;SDS011;23688;33.130;-117.188;2024-03-06T08:08:52;10.60;;;2.78;;
37847;SDS011;23688;33.130;-117.188;2024-03-06T08:11:18;10.68;;;2.63;;
37847;SDS011;23688;33.130;-117.188;2024-03-06T08:13:48;8.65;;;2.38;;
37847;SDS011;23688;33.130;-117.188;2024-03-06T08:16:15;9.40;;;2.83;;
37847;SDS011;23688;33.130;-117.188;2024-03-06T08:18:42;6.60;;;2.70;;
37847;SDS011;23688;33.130;-117.188;2024-03-06T08:21:09;13.75;;;3.45;;
37847;SDS011;23688;33.130;-117.188;2024-03-06T08:23:38;18.58;;;3.03;;
37847;SDS011;23688;33.130;-117.188;2024-03-06T08:26:04;8.95;;;2.10;;
37847;SDS011;23688;33.130;-117.188;2024-03-06T08:28:31;8.50;;;2.00;;
37847;SDS011;23688;33.130;-117.188;2024-03-06T08:30:57;7.43;;;2.08;;
37847;SDS011;23688;33.130;-117.188;2024-03-06T08:33:25;8.57;;;2.30;;
37847;SDS011;23688;33.130;-117.188;2024-03-06T08:35:51;9.52;;;2.10;;
37847;SDS011;23688;33.130;-117.188;2024-03-06T08:38:18;8.52;;;1.95;;
37847;SDS011;23688;33.130;-117.188;2024-03-06T08:40:44;11.18;;;1.80;;
37847;SDS011;23688;33.130;-117.188;2024-03-06T08:43:13;10.85;;;1.90;;
37847;SDS011;23688;33.130;-117.188;2024-03-06T08:45:41;5.22;;;1.70;;
37847;SDS011;23688;33.130;-117.188;2024-03-06T08:48:07;6.97;;;1.83;;
37847;SDS011;23688;33.130;-117.188;2024-03-06T08:50:34;8.40;;;3.20;;
37847;SDS011;23688;33.130;-117.188;2024-03-06T08:53:01;11.20;;;2.45;;
37847;SDS011;23688;33.130;-117.188;2024-03-06T08:55:27;11.07;;;2.90;;
37847;SDS011;23688;33.130;-117.188;2024-03-06T08:57:54;7.53;;;2.30;;
37847;SDS011;23688;33.130;-117.188;2024-03-06T09:00:21;7.13;;;2.05;;
37847;SDS011;23688;33.130;-117.188;2024-03-06T09:02:47;8.30;;;1.90;;
37847;SDS011;23688;33.130;-117.188;2024-03-06T09:05:15;11.32;;;1.70;;
37847;SDS011;23688;33.130;-117.188;2024-03-06T09:07:41;8.73;;;1.70;;
37847;SDS011;23688;33.130;-117.188;2024-03-06T09:10:08;7.80;;;1.60;;
37847;SDS011;23688;33.130;-117.188;2024-03-06T09:12:38;6.78;;;1.85;;
37847;SDS011;23688;33.130;-117.188;2024-03-06T09:15:05;7.35;;;1.90;;
37847;SDS011;23688;33.130;-117.188;2024-03-06T09:17:35;8.70;;;1.98;;
37847;SDS011;23688;33.130;-117.188;2024-03-06T09:20:01;6.32;;;1.90;;
37847;SDS011;23688;33.130;-117.188;2024-03-06T09:22:40;9.57;;;1.65;;
37847;SDS011;23688;33.130;-117.188;2024-03-06T09:25:07;8.65;;;1.98;;
37847;SDS011;23688;33.130;-117.188;2024-03-06T09:27:34;5.82;;;1.98;;
37847;SDS011;23688;33.130;-117.188;2024-03-06T09:30:01;6.03;;;1.50;;
37847;SDS011;23688;33.130;-117.188;2024-03-06T09:32:28;8.18;;;2.13;;
37847;SDS011;23688;33.130;-117.188;2024-03-06T09:34:55;8.98;;;1.88;;
37847;SDS011;23688;33.130;-117.188;2024-03-06T09:37:21;12.10;;;2.45;;
37847;SDS011;23688;33.130;-117.188;2024-03-06T09:39:47;7.97;;;2.33;;
37847;SDS011;23688;33.130;-117.188;2024-03-06T09:42:15;5.82;;;1.58;;
37847;SDS011;23688;33.130;-117.188;2024-03-06T09:44:42;7.25;;;1.67;;
37847;SDS011;23688;33.130;-117.188;2024-03-06T09:47:11;7.97;;;2.20;;
37847;SDS011;23688;33.130;-117.188;2024-03-06T09:49:42;10.35;;;1.60;;
37847;SDS011;23688;33.130;-117.188;2024-03-06T09:52:09;6.60;;;2.63;;
37847;SDS011;23688;33.130;-117.188;2024-03-06T09:54:36;13.93;;;2.83;;
37847;SDS011;23688;33.130;-117.188;2024-03-06T09:57:04;11.77;;;3.83;;
37847;SDS011;23688;33.130;-117.188;2024-03-06T09:59:31;14.88;;;3.40;;
37847;SDS011;23688;33.130;-117.188;2024-03-06T10:01:58;6.00;;;2.40;;
37847;SDS011;23688;33.130;-117.188;2024-03-06T10:04:28;7.53;;;1.95;;
37847;SDS011;23688;33.130;-117.188;2024-03-06T10:06:58;6.20;;;2.13;;
37847;SDS011;23688;33.130;-117.188;2024-03-06T10:09:26;10.50;;;2.35;;
37847;SDS011;23688;33.130;-117.188;2024-03-06T10:11:53;10.07;;;2.90;;
37847;SDS011;23688;33.130;-117.188;2024-03-06T10:14:21;8.23;;;3.30;;
37847;SDS011;23688;33.130;-117.188;2024-03-06T10:17:06;12.45;;;4.13;;
37847;SDS011;23688;33.130;-117.188;2024-03-06T10:19:32;10.18;;;3.92;;
37847;SDS011;23688;33.130;-117.188;2024-03-06T10:21:59;11.40;;;3.97;;
37847;SDS011;23688;33.130;-117.188;2024-03-06T10:24:26;9.85;;;4.03;;
37847;SDS011;23688;33.130;-117.188;2024-03-06T10:26:57;13.00;;;4.33;;
37847;SDS011;23688;33.130;-117.188;2024-03-06T10:29:26;10.60;;;4.22;;
37847;SDS011;23688;33.130;-117.188;2024-03-06T10:34:22;13.07;;;3.70;;
37847;SDS011;23688;33.130;-117.188;2024-03-06T10:36:56;8.80;;;3.13;;
37847;SDS011;23688;33.130;-117.188;2024-03-06T10:39:30;10.35;;;3.03;;
37847;SDS011;23688;33.130;-117.188;2024-03-06T10:41:59;6.32;;;2.83;;
37847;SDS011;23688;33.130;-117.188;2024-03-06T10:44:31;6.78;;;2.83;;
37847;SDS011;23688;33.130;-117.188;2024-03-06T10:47:00;6.85;;;3.58;;
37847;SDS011;23688;33.130;-117.188;2024-03-06T10:49:29;18.45;;;4.50;;
37847;SDS011;23688;33.130;-117.188;2024-03-06T10:52:00;7.67;;;3.53;;
37847;SDS011;23688;33.130;-117.188;2024-03-06T10:54:34;11.60;;;3.53;;
37847;SDS011;23688;33.130;-117.188;2024-03-06T10:57:04;5.72;;;2.72;;
37847;SDS011;23688;33.130;-117.188;2024-03-06T10:59:31;10.93;;;2.80;;
37847;SDS011;23688;33.130;-117.188;2024-03-06T11:02:00;5.85;;;2.25;;
37847;SDS011;23688;33.130;-117.188;2024-03-06T11:04:28;9.48;;;2.70;;
37847;SDS011;23688;33.130;-117.188;2024-03-06T11:06:56;9.18;;;3.63;;
37847;SDS011;23688;33.130;-117.188;2024-03-06T11:09:25;16.15;;;4.10;;
37847;SDS011;23688;33.130;-117.188;2024-03-06T11:12:01;7.20;;;3.22;;
37847;SDS011;23688;33.130;-117.188;2024-03-06T11:14:30;5.03;;;2.78;;
37847;SDS011;23688;33.130;-117.188;2024-03-06T11:28:18;7.05;;;2.08;;
37847;SDS011;23688;33.130;-117.188;2024-03-06T11:33:47;9.85;;;2.55;;
37847;SDS011;23688;33.130;-117.188;2024-03-06T11:41:31;4.43;;;1.63;;
37847;SDS011;23688;33.130;-117.188;2024-03-06T11:44:22;10.23;;;2.00;;
37847;SDS011;23688;33.130;-117.188;2024-03-06T11:47:10;11.23;;;1.67;;
37847;SDS011;23688;33.130;-117.188;2024-03-06T11:49:35;10.98;;;2.25;;
37847;SDS011;23688;33.130;-117.188;2024-03-06T11:52:03;10.18;;;1.83;;
37847;SDS011;23688;33.130;-117.188;2024-03-06T11:54:33;9.93;;;1.55;;
37847;SDS011;23688;33.130;-117.188;2024-03-06T11:57:03;8.52;;;1.67;;
37847;SDS011;23688;33.130;-117.188;2024-03-06T11:59:37;9.70;;;2.22;;
37847;SDS011;23688;33.130;-117.188;2024-03-06T12:02:08;9.38;;;1.92;;
37847;SDS011;23688;33.130;-117.188;2024-03-06T12:04:36;13.80;;;2.65;;
37847;SDS011;23688;33.130;-117.188;2024-03-06T12:07:03;11.40;;;2.85;;
37847;SDS011;23688;33.130;-117.188;2024-03-06T12:09:34;6.13;;;2.83;;
37847;SDS011;23688;33.130;-117.188;2024-03-06T12:12:01;8.73;;;2.45;;
37847;SDS011;23688;33.130;-117.188;2024-03-06T12:14:29;8.18;;;2.50;;
37847;SDS011;23688;33.130;-117.188;2024-03-06T12:16:56;16.88;;;3.65;;
37847;SDS011;23688;33.130;-117.188;2024-03-06T12:19:27;8.73;;;2.85;;
37847;SDS011;23688;33.130;-117.188;2024-03-06T12:22:05;17.23;;;3.35;;
37847;SDS011;23688;33.130;-117.188;2024-03-06T12:24:32;12.23;;;2.72;;
37847;SDS011;23688;33.130;-117.188;2024-03-06T12:27:02;11.07;;;2.60;;
37847;SDS011;23688;33.130;-117.188;2024-03-06T12:29:30;8.50;;;1.95;;
37847;SDS011;23688;33.130;-117.188;2024-03-06T12:31:59;9.05;;;2.00;;
37847;SDS011;23688;33.130;-117.188;2024-03-06T12:34:27;10.20;;;1.75;;
37847;SDS011;23688;33.130;-117.188;2024-03-06T12:36:55;4.38;;;1.55;;
37847;SDS011;23688;33.130;-117.188;2024-03-06T12:39:23;8.70;;;2.58;;
37847;SDS011;23688;33.130;-117.188;2024-03-06T12:41:49;10.20;;;2.28;;
37847;SDS011;23688;33.130;-117.188;2024-03-06T12:44:16;8.63;;;1.42;;
37847;SDS011;23688;33.130;-117.188;2024-03-06T12:46:43;6.80;;;2.00;;
37847;SDS011;23688;33.130;-117.188;2024-03-06T12:49:10;7.30;;;1.70;;
37847;SDS011;23688;33.130;-117.188;2024-03-06T12:51:36;8.23;;;2.13;;
37847;SDS011;23688;33.130;-117.188;2024-03-06T12:54:02;9.38;;;1.85;;
37847;SDS011;23688;33.130;-117.188;2024-03-06T12:56:29;5.75;;;1.63;;
37847;SDS011;23688;33.130;-117.188;2024-03-06T12:58:55;10.23;;;2.22;;
37847;SDS011;23688;33.130;-117.188;2024-03-06T13:01:21;5.25;;;2.13;;
37847;SDS011;23688;33.130;-117.188;2024-03-06T13:03:48;6.93;;;2.60;;
37847;SDS011;23688;33.130;-117.188;2024-03-06T13:06:14;8.15;;;3.65;;
37847;SDS011;23688;33.130;-117.188;2024-03-06T13:08:41;9.25;;;4.13;;
37847;SDS011;23688;33.130;-117.188;2024-03-06T13:11:07;9.50;;;3.53;;
37847;SDS011;23688;33.130;-117.188;2024-03-06T13:13:35;9.82;;;3.55;;
37847;SDS011;23688;33.130;-117.188;2024-03-06T13:16:01;8.15;;;2.67;;
37847;SDS011;23688;33.130;-117.188;2024-03-06T13:18:28;12.25;;;2.83;;
37847;SDS011;23688;33.130;-117.188;2024-03-06T13:20:54;10.52;;;3.28;;
37847;SDS011;23688;33.130;-117.188;2024-03-06T13:23:23;7.85;;;2.00;;
37847;SDS011;23688;33.130;-117.188;2024-03-06T13:25:50;5.28;;;1.95;;
37847;SDS011;23688;33.130;-117.188;2024-03-06T13:28:16;4.68;;;1.80;;
37847;SDS011;23688;33.130;-117.188;2024-03-06T13:30:42;4.28;;;2.70;;
37847;SDS011;23688;33.130;-117.188;2024-03-06T13:33:09;15.63;;;3.42;;
37847;SDS011;23688;33.130;-117.188;2024-03-06T13:35:36;10.77;;;4.20;;
37847;SDS011;23688;33.130;-117.188;2024-03-06T13:38:02;14.13;;;5.53;;
37847;SDS011;23688;33.130;-117.188;2024-03-06T13:40:29;14.20;;;5.10;;
37847;SDS011;23688;33.130;-117.188;2024-03-06T13:42:55;11.02;;;4.85;;
37847;SDS011;23688;33.130;-117.188;2024-03-06T13:45:21;8.82;;;3.30;;
37847;SDS011;23688;33.130;-117.188;2024-03-06T13:47:48;12.77;;;2.15;;
37847;SDS011;23688;33.130;-117.188;2024-03-06T13:50:15;6.75;;;2.30;;
37847;SDS011;23688;33.130;-117.188;2024-03-06T13:52:42;8.52;;;2.17;;
37847;SDS011;23688;33.130;-117.188;2024-03-06T13:55:09;7.50;;;2.40;;
37847;SDS011;23688;33.130;-117.188;2024-03-06T13:57:36;5.25;;;2.10;;
37847;SDS011;23688;33.130;-117.188;2024-03-06T14:00:04;8.20;;;2.22;;
37847;SDS011;23688;33.130;-117.188;2024-03-06T14:02:32;14.00;;;2.58;;
37847;SDS011;23688;33.130;-117.188;2024-03-06T14:04:58;11.90;;;2.85;;
37847;SDS011;23688;33.130;-117.188;2024-03-06T14:07:25;8.65;;;2.97;;
37847;SDS011;23688;33.130;-117.188;2024-03-06T14:09:51;10.10;;;3.60;;
37847;SDS011;23688;33.130;-117.188;2024-03-06T14:12:17;10.30;;;3.00;;
37847;SDS011;23688;33.130;-117.188;2024-03-06T14:14:44;6.32;;;2.95;;
37847;SDS011;23688;33.130;-117.188;2024-03-06T14:17:11;11.57;;;2.90;;
37847;SDS011;23688;33.130;-117.188;2024-03-06T14:19:38;10.45;;;4.20;;
37847;SDS011;23688;33.130;-117.188;2024-03-06T14:22:08;15.85;;;5.00;;
37847;SDS011;23688;33.130;-117.188;2024-03-06T14:24:34;13.00;;;5.45;;
37847;SDS011;23688;33.130;-117.188;2024-03-06T14:27:04;14.20;;;5.85;;
37847;SDS011;23688;33.130;-117.188;2024-03-06T14:29:31;18.83;;;6.20;;